Terminal Aerodrome Forecast
Issued by NWS Jackson, KY

Home | Current Version | Previous Version | Text Only | Print | Product List | Glossary On
Versions: 1 2 3 4 5 6 7 8 9 10 11 12 13 14 15 16 17 18 19 20 21 22 23 24
992
FTUS43 KJKL 021121
TAFJKL
TAF
KJKL 021121Z 0212/0312 21004KT P6SM BKN025
     FM021500 23005KT P6SM BKN035
     FM021800 24005KT 3SM SHRA BR VCTS OVC040CB
     FM030300 00000KT P6SM VCSH OVC025
     FM030600 00000KT P6SM OVC015=

USA.gov is the U.S. government's official web portal to all federal, state and local government web resources and services.